sensor_id;sensor_type;location;lat;lon;timestamp;P1;durP1;ratioP1;P2;durP2;ratioP2
45043;SDS011;30784;48.490;9.688;2023-03-20T00:03:55;4.65;;;1.40;;
45043;SDS011;30784;48.490;9.688;2023-03-20T00:06:22;3.38;;;1.15;;
45043;SDS011;30784;48.490;9.688;2023-03-20T00:08:51;5.20;;;1.35;;
45043;SDS011;30784;48.490;9.688;2023-03-20T00:13:50;5.32;;;1.80;;
45043;SDS011;30784;48.490;9.688;2023-03-20T00:16:16;4.13;;;1.45;;
45043;SDS011;30784;48.490;9.688;2023-03-20T00:18:42;4.32;;;1.40;;
45043;SDS011;30784;48.490;9.688;2023-03-20T00:21:14;16.83;;;9.93;;
45043;SDS011;30784;48.490;9.688;2023-03-20T00:23:42;9.57;;;3.92;;
45043;SDS011;30784;48.490;9.688;2023-03-20T00:26:14;6.20;;;2.40;;
45043;SDS011;30784;48.490;9.688;2023-03-20T00:28:47;4.82;;;1.50;;
45043;SDS011;30784;48.490;9.688;2023-03-20T00:33:44;5.15;;;1.30;;
45043;SDS011;30784;48.490;9.688;2023-03-20T00:36:10;3.22;;;1.15;;
45043;SDS011;30784;48.490;9.688;2023-03-20T00:38:35;6.10;;;2.08;;
45043;SDS011;30784;48.490;9.688;2023-03-20T00:41:01;7.15;;;2.58;;
45043;SDS011;30784;48.490;9.688;2023-03-20T00:43:29;4.50;;;1.65;;
45043;SDS011;30784;48.490;9.688;2023-03-20T00:45:55;4.43;;;1.30;;
45043;SDS011;30784;48.490;9.688;2023-03-20T00:48:21;5.00;;;1.50;;
45043;SDS011;30784;48.490;9.688;2023-03-20T00:50:46;4.82;;;1.45;;
45043;SDS011;30784;48.490;9.688;2023-03-20T00:53:13;3.95;;;1.20;;
45043;SDS011;30784;48.490;9.688;2023-03-20T00:55:39;2.97;;;1.13;;
45043;SDS011;30784;48.490;9.688;2023-03-20T00:58:05;4.20;;;1.40;;
45043;SDS011;30784;48.490;9.688;2023-03-20T01:00:43;7.10;;;3.03;;
45043;SDS011;30784;48.490;9.688;2023-03-20T01:03:11;5.13;;;1.70;;
45043;SDS011;30784;48.490;9.688;2023-03-20T01:05:37;4.63;;;1.30;;
45043;SDS011;30784;48.490;9.688;2023-03-20T01:08:13;5.95;;;1.30;;
45043;SDS011;30784;48.490;9.688;2023-03-20T01:10:52;4.53;;;1.27;;
45043;SDS011;30784;48.490;9.688;2023-03-20T01:13:20;4.10;;;1.30;;
45043;SDS011;30784;48.490;9.688;2023-03-20T01:15:51;5.50;;;1.40;;
45043;SDS011;30784;48.490;9.688;2023-03-20T01:18:18;8.77;;;4.32;;
45043;SDS011;30784;48.490;9.688;2023-03-20T01:20:46;17.60;;;11.30;;
45043;SDS011;30784;48.490;9.688;2023-03-20T01:23:13;9.25;;;3.78;;
45043;SDS011;30784;48.490;9.688;2023-03-20T01:25:39;7.30;;;2.60;;
45043;SDS011;30784;48.490;9.688;2023-03-20T01:28:19;5.28;;;1.75;;
45043;SDS011;30784;48.490;9.688;2023-03-20T01:30:46;6.53;;;2.50;;
45043;SDS011;30784;48.490;9.688;2023-03-20T01:33:20;4.63;;;1.70;;
45043;SDS011;30784;48.490;9.688;2023-03-20T01:35:47;5.35;;;1.80;;
45043;SDS011;30784;48.490;9.688;2023-03-20T01:38:17;5.70;;;1.77;;
45043;SDS011;30784;48.490;9.688;2023-03-20T01:40:53;5.40;;;1.70;;
45043;SDS011;30784;48.490;9.688;2023-03-20T01:43:23;5.95;;;1.83;;
45043;SDS011;30784;48.490;9.688;2023-03-20T01:46:00;5.90;;;1.70;;
45043;SDS011;30784;48.490;9.688;2023-03-20T01:51:17;4.43;;;1.45;;
45043;SDS011;30784;48.490;9.688;2023-03-20T01:53:44;5.70;;;1.40;;
45043;SDS011;30784;48.490;9.688;2023-03-20T01:56:14;4.35;;;1.30;;
45043;SDS011;30784;48.490;9.688;2023-03-20T01:58:42;5.97;;;1.40;;
45043;SDS011;30784;48.490;9.688;2023-03-20T02:03:38;3.90;;;1.20;;
45043;SDS011;30784;48.490;9.688;2023-03-20T02:06:06;4.40;;;1.45;;
45043;SDS011;30784;48.490;9.688;2023-03-20T02:08:33;4.22;;;1.30;;
45043;SDS011;30784;48.490;9.688;2023-03-20T02:11:05;3.45;;;1.00;;
45043;SDS011;30784;48.490;9.688;2023-03-20T02:13:31;2.90;;;1.00;;
45043;SDS011;30784;48.490;9.688;2023-03-20T02:16:05;3.08;;;1.17;;
45043;SDS011;30784;48.490;9.688;2023-03-20T02:18:34;2.75;;;1.00;;
45043;SDS011;30784;48.490;9.688;2023-03-20T02:24:12;4.45;;;1.30;;
45043;SDS011;30784;48.490;9.688;2023-03-20T02:26:45;4.20;;;1.23;;
45043;SDS011;30784;48.490;9.688;2023-03-20T02:29:33;3.50;;;1.08;;
45043;SDS011;30784;48.490;9.688;2023-03-20T02:32:35;3.22;;;1.05;;
45043;SDS011;30784;48.490;9.688;2023-03-20T02:43:14;4.07;;;1.30;;
45043;SDS011;30784;48.490;9.688;2023-03-20T02:51:15;4.18;;;1.00;;
45043;SDS011;30784;48.490;9.688;2023-03-20T02:54:02;2.05;;;0.70;;
45043;SDS011;30784;48.490;9.688;2023-03-20T03:02:08;2.30;;;0.68;;
45043;SDS011;30784;48.490;9.688;2023-03-20T03:04:39;2.33;;;0.60;;
45043;SDS011;30784;48.490;9.688;2023-03-20T03:07:08;3.55;;;0.80;;
45043;SDS011;30784;48.490;9.688;2023-03-20T03:09:42;4.75;;;0.70;;
45043;SDS011;30784;48.490;9.688;2023-03-20T03:12:17;2.15;;;0.70;;
45043;SDS011;30784;48.490;9.688;2023-03-20T03:14:49;2.50;;;0.60;;
45043;SDS011;30784;48.490;9.688;2023-03-20T03:17:18;2.00;;;0.52;;
45043;SDS011;30784;48.490;9.688;2023-03-20T03:19:52;1.15;;;0.40;;
45043;SDS011;30784;48.490;9.688;2023-03-20T03:22:21;2.00;;;0.60;;
45043;SDS011;30784;48.490;9.688;2023-03-20T03:24:48;1.92;;;0.50;;
45043;SDS011;30784;48.490;9.688;2023-03-20T03:27:17;1.05;;;0.38;;
45043;SDS011;30784;48.490;9.688;2023-03-20T03:29:59;1.17;;;0.40;;
45043;SDS011;30784;48.490;9.688;2023-03-20T03:32:33;1.45;;;0.40;;
45043;SDS011;30784;48.490;9.688;2023-03-20T03:35:01;0.68;;;0.30;;
45043;SDS011;30784;48.490;9.688;2023-03-20T03:37:44;1.15;;;0.50;;
45043;SDS011;30784;48.490;9.688;2023-03-20T03:42:51;0.65;;;0.30;;
45043;SDS011;30784;48.490;9.688;2023-03-20T03:45:29;1.20;;;0.40;;
45043;SDS011;30784;48.490;9.688;2023-03-20T03:48:13;0.93;;;0.40;;
45043;SDS011;30784;48.490;9.688;2023-03-20T03:50:47;0.73;;;0.40;;
45043;SDS011;30784;48.490;9.688;2023-03-20T03:53:20;0.40;;;0.25;;
45043;SDS011;30784;48.490;9.688;2023-03-20T03:55:51;1.02;;;0.50;;
45043;SDS011;30784;48.490;9.688;2023-03-20T03:58:22;1.27;;;0.35;;
45043;SDS011;30784;48.490;9.688;2023-03-20T04:00:54;1.17;;;0.40;;
45043;SDS011;30784;48.490;9.688;2023-03-20T04:03:24;0.77;;;0.30;;
45043;SDS011;30784;48.490;9.688;2023-03-20T04:05:54;0.95;;;0.40;;
45043;SDS011;30784;48.490;9.688;2023-03-20T04:08:22;0.98;;;0.40;;
45043;SDS011;30784;48.490;9.688;2023-03-20T04:10:47;1.48;;;0.50;;
45043;SDS011;30784;48.490;9.688;2023-03-20T04:13:13;1.98;;;0.65;;
45043;SDS011;30784;48.490;9.688;2023-03-20T04:15:40;1.35;;;0.50;;
45043;SDS011;30784;48.490;9.688;2023-03-20T04:18:06;2.50;;;0.70;;
45043;SDS011;30784;48.490;9.688;2023-03-20T04:20:33;2.08;;;0.68;;
45043;SDS011;30784;48.490;9.688;2023-03-20T04:22:59;1.15;;;0.50;;
45043;SDS011;30784;48.490;9.688;2023-03-20T04:25:26;1.30;;;0.50;;
45043;SDS011;30784;48.490;9.688;2023-03-20T04:27:51;1.95;;;0.57;;
45043;SDS011;30784;48.490;9.688;2023-03-20T04:30:17;1.20;;;0.50;;
45043;SDS011;30784;48.490;9.688;2023-03-20T04:32:43;2.05;;;0.73;;
45043;SDS011;30784;48.490;9.688;2023-03-20T04:35:09;0.82;;;0.40;;
45043;SDS011;30784;48.490;9.688;2023-03-20T04:37:35;1.83;;;0.70;;
45043;SDS011;30784;48.490;9.688;2023-03-20T04:40:00;2.40;;;0.80;;
45043;SDS011;30784;48.490;9.688;2023-03-20T04:42:26;1.77;;;0.85;;
45043;SDS011;30784;48.490;9.688;2023-03-20T04:44:51;1.55;;;0.63;;
45043;SDS011;30784;48.490;9.688;2023-03-20T04:47:17;2.17;;;0.77;;
45043;SDS011;30784;48.490;9.688;2023-03-20T04:49:43;2.70;;;0.90;;
45043;SDS011;30784;48.490;9.688;2023-03-20T04:52:08;3.42;;;0.90;;
45043;SDS011;30784;48.490;9.688;2023-03-20T04:54:34;3.70;;;0.80;;
45043;SDS011;30784;48.490;9.688;2023-03-20T04:56:59;2.60;;;0.60;;
45043;SDS011;30784;48.490;9.688;2023-03-20T04:59:25;2.08;;;0.70;;
45043;SDS011;30784;48.490;9.688;2023-03-20T05:01:51;2.60;;;0.60;;
45043;SDS011;30784;48.490;9.688;2023-03-20T05:04:16;1.70;;;0.60;;
45043;SDS011;30784;48.490;9.688;2023-03-20T05:06:42;1.08;;;0.52;;
45043;SDS011;30784;48.490;9.688;2023-03-20T05:09:08;2.10;;;0.60;;
45043;SDS011;30784;48.490;9.688;2023-03-20T05:11:34;0.80;;;0.50;;
45043;SDS011;30784;48.490;9.688;2023-03-20T05:13:59;1.38;;;0.50;;
45043;SDS011;30784;48.490;9.688;2023-03-20T05:16:25;1.67;;;0.45;;
45043;SDS011;30784;48.490;9.688;2023-03-20T05:18:50;1.88;;;0.52;;
45043;SDS011;30784;48.490;9.688;2023-03-20T05:21:16;1.20;;;0.60;;
45043;SDS011;30784;48.490;9.688;2023-03-20T05:23:42;1.05;;;0.43;;
45043;SDS011;30784;48.490;9.688;2023-03-20T05:26:07;1.70;;;0.50;;
45043;SDS011;30784;48.490;9.688;2023-03-20T05:28:33;1.05;;;0.43;;
45043;SDS011;30784;48.490;9.688;2023-03-20T05:30:58;1.40;;;0.50;;
45043;SDS011;30784;48.490;9.688;2023-03-20T05:33:24;2.15;;;0.63;;
45043;SDS011;30784;48.490;9.688;2023-03-20T05:35:50;2.40;;;0.70;;
45043;SDS011;30784;48.490;9.688;2023-03-20T05:38:15;3.13;;;0.75;;
45043;SDS011;30784;48.490;9.688;2023-03-20T05:40:41;1.80;;;0.60;;
45043;SDS011;30784;48.490;9.688;2023-03-20T05:43:06;2.65;;;0.90;;
45043;SDS011;30784;48.490;9.688;2023-03-20T05:45:32;1.88;;;0.52;;
45043;SDS011;30784;48.490;9.688;2023-03-20T05:47:58;2.45;;;0.50;;
45043;SDS011;30784;48.490;9.688;2023-03-20T05:50:23;1.63;;;0.82;;
45043;SDS011;30784;48.490;9.688;2023-03-20T05:52:49;2.22;;;0.77;;
45043;SDS011;30784;48.490;9.688;2023-03-20T05:55:15;2.28;;;0.60;;
45043;SDS011;30784;48.490;9.688;2023-03-20T05:57:41;2.05;;;0.80;;
45043;SDS011;30784;48.490;9.688;2023-03-20T06:00:07;2.22;;;0.80;;
45043;SDS011;30784;48.490;9.688;2023-03-20T06:02:34;2.08;;;0.60;;
45043;SDS011;30784;48.490;9.688;2023-03-20T06:05:01;2.90;;;0.95;;
45043;SDS011;30784;48.490;9.688;2023-03-20T06:07:26;3.45;;;1.08;;
45043;SDS011;30784;48.490;9.688;2023-03-20T06:09:52;2.58;;;0.85;;
45043;SDS011;30784;48.490;9.688;2023-03-20T06:12:18;1.88;;;0.60;;
45043;SDS011;30784;48.490;9.688;2023-03-20T06:14:43;1.80;;;0.60;;
45043;SDS011;30784;48.490;9.688;2023-03-20T06:17:09;1.20;;;0.60;;
45043;SDS011;30784;48.490;9.688;2023-03-20T06:19:34;1.90;;;0.75;;
45043;SDS011;30784;48.490;9.688;2023-03-20T06:22:01;4.80;;;0.80;;
45043;SDS011;30784;48.490;9.688;2023-03-20T06:24:26;2.13;;;0.70;;
45043;SDS011;30784;48.490;9.688;2023-03-20T06:26:52;2.45;;;0.80;;
45043;SDS011;30784;48.490;9.688;2023-03-20T06:29:17;2.20;;;0.63;;
45043;SDS011;30784;48.490;9.688;2023-03-20T06:31:43;2.63;;;0.70;;
45043;SDS011;30784;48.490;9.688;2023-03-20T06:34:08;1.48;;;0.60;;
45043;SDS011;30784;48.490;9.688;2023-03-20T06:36:34;1.70;;;0.70;;
45043;SDS011;30784;48.490;9.688;2023-03-20T06:39:00;2.00;;;0.60;;
45043;SDS011;30784;48.490;9.688;2023-03-20T06:41:26;3.10;;;0.85;;
45043;SDS011;30784;48.490;9.688;2023-03-20T06:43:52;1.45;;;0.60;;
45043;SDS011;30784;48.490;9.688;2023-03-20T06:46:17;1.95;;;0.70;;
45043;SDS011;30784;48.490;9.688;2023-03-20T06:48:43;3.45;;;0.70;;
45043;SDS011;30784;48.490;9.688;2023-03-20T06:51:08;3.00;;;0.77;;
45043;SDS011;30784;48.490;9.688;2023-03-20T06:53:34;1.67;;;0.60;;
45043;SDS011;30784;48.490;9.688;2023-03-20T06:56:00;2.13;;;0.70;;
45043;SDS011;30784;48.490;9.688;2023-03-20T06:58:26;3.70;;;1.10;;
45043;SDS011;30784;48.490;9.688;2023-03-20T07:00:51;4.72;;;1.80;;
45043;SDS011;30784;48.490;9.688;2023-03-20T07:03:18;4.55;;;1.58;;
45043;SDS011;30784;48.490;9.688;2023-03-20T07:05:44;4.45;;;1.23;;
45043;SDS011;30784;48.490;9.688;2023-03-20T07:08:10;4.18;;;1.30;;
45043;SDS011;30784;48.490;9.688;2023-03-20T07:10:36;3.78;;;1.10;;
45043;SDS011;30784;48.490;9.688;2023-03-20T07:13:02;3.50;;;1.30;;
45043;SDS011;30784;48.490;9.688;2023-03-20T07:15:28;4.38;;;1.30;;
45043;SDS011;30784;48.490;9.688;2023-03-20T07:17:54;3.08;;;1.00;;
45043;SDS011;30784;48.490;9.688;2023-03-20T07:20:19;2.75;;;0.90;;
45043;SDS011;30784;48.490;9.688;2023-03-20T07:22:46;2.28;;;0.77;;
45043;SDS011;30784;48.490;9.688;2023-03-20T07:25:12;3.63;;;1.00;;
45043;SDS011;30784;48.490;9.688;2023-03-20T07:27:38;3.22;;;1.08;;
45043;SDS011;30784;48.490;9.688;2023-03-20T07:30:04;3.10;;;1.05;;
45043;SDS011;30784;48.490;9.688;2023-03-20T07:32:30;3.10;;;0.73;;
45043;SDS011;30784;48.490;9.688;2023-03-20T07:34:56;2.47;;;0.93;;
45043;SDS011;30784;48.490;9.688;2023-03-20T07:37:22;2.55;;;0.80;;
45043;SDS011;30784;48.490;9.688;2023-03-20T07:39:48;1.83;;;0.60;;
45043;SDS011;30784;48.490;9.688;2023-03-20T07:42:13;1.85;;;0.50;;
45043;SDS011;30784;48.490;9.688;2023-03-20T07:44:40;1.13;;;0.40;;
45043;SDS011;30784;48.490;9.688;2023-03-20T07:47:05;1.52;;;0.60;;
45043;SDS011;30784;48.490;9.688;2023-03-20T07:49:31;1.35;;;0.60;;
45043;SDS011;30784;48.490;9.688;2023-03-20T07:51:57;1.75;;;0.60;;
45043;SDS011;30784;48.490;9.688;2023-03-20T07:54:23;2.90;;;0.55;;
45043;SDS011;30784;48.490;9.688;2023-03-20T07:56:48;2.25;;;0.63;;
45043;SDS011;30784;48.490;9.688;2023-03-20T07:59:14;1.85;;;0.60;;
45043;SDS011;30784;48.490;9.688;2023-03-20T08:01:40;4.35;;;0.60;;
45043;SDS011;30784;48.490;9.688;2023-03-20T08:04:06;2.40;;;0.52;;
45043;SDS011;30784;48.490;9.688;2023-03-20T08:06:31;6.80;;;2.58;;
45043;SDS011;30784;48.490;9.688;2023-03-20T08:08:57;4.57;;;1.30;;
45043;SDS011;30784;48.490;9.688;2023-03-20T08:11:22;2.92;;;0.80;;
45043;SDS011;30784;48.490;9.688;2023-03-20T08:13:48;20.08;;;7.22;;
45043;SDS011;30784;48.490;9.688;2023-03-20T08:16:14;10.73;;;3.53;;
45043;SDS011;30784;48.490;9.688;2023-03-20T08:18:40;7.35;;;2.00;;
45043;SDS011;30784;48.490;9.688;2023-03-20T08:21:06;2.90;;;0.60;;
45043;SDS011;30784;48.490;9.688;2023-03-20T08:23:32;4.10;;;0.88;;
45043;SDS011;30784;48.490;9.688;2023-03-20T08:25:57;1.88;;;0.40;;
45043;SDS011;30784;48.490;9.688;2023-03-20T08:28:23;1.48;;;0.30;;
45043;SDS011;30784;48.490;9.688;2023-03-20T08:30:49;0.80;;;0.40;;
45043;SDS011;30784;48.490;9.688;2023-03-20T08:33:15;0.73;;;0.35;;
45043;SDS011;30784;48.490;9.688;2023-03-20T08:35:41;1.05;;;0.45;;
45043;SDS011;30784;48.490;9.688;2023-03-20T08:38:08;1.50;;;0.30;;
45043;SDS011;30784;48.490;9.688;2023-03-20T08:40:38;1.20;;;0.37;;
45043;SDS011;30784;48.490;9.688;2023-03-20T08:43:07;2.72;;;0.60;;
45043;SDS011;30784;48.490;9.688;2023-03-20T08:45:33;0.85;;;0.40;;
45043;SDS011;30784;48.490;9.688;2023-03-20T08:47:59;1.08;;;0.50;;
45043;SDS011;30784;48.490;9.688;2023-03-20T08:50:24;3.00;;;1.02;;
45043;SDS011;30784;48.490;9.688;2023-03-20T08:52:50;2.33;;;0.90;;
45043;SDS011;30784;48.490;9.688;2023-03-20T08:55:16;1.40;;;0.60;;
45043;SDS011;30784;48.490;9.688;2023-03-20T08:57:42;1.23;;;0.60;;
45043;SDS011;30784;48.490;9.688;2023-03-20T09:00:08;1.60;;;0.35;;
45043;SDS011;30784;48.490;9.688;2023-03-20T09:02:37;2.45;;;0.60;;
45043;SDS011;30784;48.490;9.688;2023-03-20T09:05:03;0.65;;;0.32;;
45043;SDS011;30784;48.490;9.688;2023-03-20T09:07:29;0.85;;;0.30;;
45043;SDS011;30784;48.490;9.688;2023-03-20T09:09:54;1.02;;;0.40;;
45043;SDS011;30784;48.490;9.688;2023-03-20T09:12:20;1.38;;;0.28;;
45043;SDS011;30784;48.490;9.688;2023-03-20T09:14:45;0.68;;;0.25;;
45043;SDS011;30784;48.490;9.688;2023-03-20T09:17:11;0.35;;;0.15;;
45043;SDS011;30784;48.490;9.688;2023-03-20T09:19:36;0.75;;;0.20;;
45043;SDS011;30784;48.490;9.688;2023-03-20T09:22:04;0.88;;;0.22;;
45043;SDS011;30784;48.490;9.688;2023-03-20T09:24:30;1.80;;;0.57;;
45043;SDS011;30784;48.490;9.688;2023-03-20T09:26:56;6.03;;;1.40;;
45043;SDS011;30784;48.490;9.688;2023-03-20T09:29:22;6.40;;;2.03;;
45043;SDS011;30784;48.490;9.688;2023-03-20T09:31:48;5.28;;;1.27;;
45043;SDS011;30784;48.490;9.688;2023-03-20T09:34:13;2.95;;;0.70;;
45043;SDS011;30784;48.490;9.688;2023-03-20T09:36:39;1.25;;;0.45;;
45043;SDS011;30784;48.490;9.688;2023-03-20T09:39:05;1.73;;;0.60;;
45043;SDS011;30784;48.490;9.688;2023-03-20T09:41:30;0.68;;;0.40;;
45043;SDS011;30784;48.490;9.688;2023-03-20T09:44:31;1.55;;;0.45;;
45043;SDS011;30784;48.490;9.688;2023-03-20T09:47:26;0.52;;;0.25;;
45043;SDS011;30784;48.490;9.688;2023-03-20T09:50:16;0.50;;;0.30;;
45043;SDS011;30784;48.490;9.688;2023-03-20T09:52:58;1.15;;;0.30;;
45043;SDS011;30784;48.490;9.688;2023-03-20T09:55:38;2.15;;;0.47;;
45043;SDS011;30784;48.490;9.688;2023-03-20T09:58:11;2.50;;;0.50;;
45043;SDS011;30784;48.490;9.688;2023-03-20T10:00:43;2.15;;;0.40;;
45043;SDS011;30784;48.490;9.688;2023-03-20T10:03:16;0.80;;;0.35;;
45043;SDS011;30784;48.490;9.688;2023-03-20T10:05:43;0.47;;;0.30;;
45043;SDS011;30784;48.490;9.688;2023-03-20T10:08:12;0.70;;;0.30;;
45043;SDS011;30784;48.490;9.688;2023-03-20T10:13:21;0.80;;;0.30;;
45043;SDS011;30784;48.490;9.688;2023-03-20T10:18:37;1.23;;;0.45;;
45043;SDS011;30784;48.490;9.688;2023-03-20T10:21:11;1.23;;;0.35;;
45043;SDS011;30784;48.490;9.688;2023-03-20T10:26:32;1.83;;;0.40;;
45043;SDS011;30784;48.490;9.688;2023-03-20T10:29:15;0.73;;;0.43;;
45043;SDS011;30784;48.490;9.688;2023-03-20T10:31:59;1.30;;;0.60;;
45043;SDS011;30784;48.490;9.688;2023-03-20T10:39:58;1.65;;;0.70;;
45043;SDS011;30784;48.490;9.688;2023-03-20T10:42:45;5.72;;;1.50;;
45043;SDS011;30784;48.490;9.688;2023-03-20T10:47:54;2.08;;;0.77;;
45043;SDS011;30784;48.490;9.688;2023-03-20T10:50:27;2.80;;;1.00;;
45043;SDS011;30784;48.490;9.688;2023-03-20T10:52:57;2.38;;;0.90;;
45043;SDS011;30784;48.490;9.688;2023-03-20T10:55:28;3.35;;;1.20;;
45043;SDS011;30784;48.490;9.688;2023-03-20T10:58:02;3.47;;;1.00;;
45043;SDS011;30784;48.490;9.688;2023-03-20T11:00:39;2.90;;;0.85;;
45043;SDS011;30784;48.490;9.688;2023-03-20T11:03:05;4.35;;;1.30;;
45043;SDS011;30784;48.490;9.688;2023-03-20T11:05:40;2.45;;;0.90;;
45043;SDS011;30784;48.490;9.688;2023-03-20T11:08:07;4.63;;;1.33;;
45043;SDS011;30784;48.490;9.688;2023-03-20T11:10:36;8.18;;;2.10;;
45043;SDS011;30784;48.490;9.688;2023-03-20T11:18:45;1.83;;;0.65;;
45043;SDS011;30784;48.490;9.688;2023-03-20T11:21:17;1.88;;;0.50;;
45043;SDS011;30784;48.490;9.688;2023-03-20T11:23:45;1.42;;;0.45;;
45043;SDS011;30784;48.490;9.688;2023-03-20T11:26:15;1.65;;;0.50;;
45043;SDS011;30784;48.490;9.688;2023-03-20T11:28:49;1.35;;;0.50;;
45043;SDS011;30784;48.490;9.688;2023-03-20T11:31:19;0.95;;;0.40;;
45043;SDS011;30784;48.490;9.688;2023-03-20T11:36:38;2.08;;;0.60;;
45043;SDS011;30784;48.490;9.688;2023-03-20T11:39:13;1.45;;;0.52;;
45043;SDS011;30784;48.490;9.688;2023-03-20T11:41:52;1.00;;;0.40;;
45043;SDS011;30784;48.490;9.688;2023-03-20T11:44:40;1.00;;;0.40;;
45043;SDS011;30784;48.490;9.688;2023-03-20T11:47:10;1.92;;;0.50;;
45043;SDS011;30784;48.490;9.688;2023-03-20T11:49:48;1.15;;;0.50;;
45043;SDS011;30784;48.490;9.688;2023-03-20T11:52:26;2.28;;;0.60;;
45043;SDS011;30784;48.490;9.688;2023-03-20T11:54:57;0.80;;;0.30;;
45043;SDS011;30784;48.490;9.688;2023-03-20T11:57:28;1.35;;;0.50;;
45043;SDS011;30784;48.490;9.688;2023-03-20T12:02:48;0.73;;;0.30;;
45043;SDS011;30784;48.490;9.688;2023-03-20T12:05:28;1.13;;;0.47;;
45043;SDS011;30784;48.490;9.688;2023-03-20T12:10:31;1.50;;;0.50;;
45043;SDS011;30784;48.490;9.688;2023-03-20T12:13:04;1.08;;;0.40;;
45043;SDS011;30784;48.490;9.688;2023-03-20T12:15:38;1.58;;;0.32;;
45043;SDS011;30784;48.490;9.688;2023-03-20T12:18:15;1.40;;;0.40;;
45043;SDS011;30784;48.490;9.688;2023-03-20T12:23:47;1.30;;;0.40;;
45043;SDS011;30784;48.490;9.688;2023-03-20T12:26:14;2.22;;;0.40;;
45043;SDS011;30784;48.490;9.688;2023-03-20T12:28:51;1.45;;;0.47;;
45043;SDS011;30784;48.490;9.688;2023-03-20T12:31:37;1.63;;;0.50;;
45043;SDS011;30784;48.490;9.688;2023-03-20T12:34:22;1.48;;;0.70;;
45043;SDS011;30784;48.490;9.688;2023-03-20T12:36:51;1.08;;;0.38;;
45043;SDS011;30784;48.490;9.688;2023-03-20T12:39:22;1.60;;;0.47;;
45043;SDS011;30784;48.490;9.688;2023-03-20T12:44:55;1.77;;;0.50;;
45043;SDS011;30784;48.490;9.688;2023-03-20T12:47:41;2.65;;;0.65;;
45043;SDS011;30784;48.490;9.688;2023-03-20T13:01:31;1.98;;;0.60;;
45043;SDS011;30784;48.490;9.688;2023-03-20T13:06:51;2.42;;;0.50;;
45043;SDS011;30784;48.490;9.688;2023-03-20T13:12:17;2.00;;;0.60;;
45043;SDS011;30784;48.490;9.688;2023-03-20T13:17:38;2.85;;;0.80;;
45043;SDS011;30784;48.490;9.688;2023-03-20T13:20:29;1.45;;;0.55;;
45043;SDS011;30784;48.490;9.688;2023-03-20T13:25:43;2.20;;;0.70;;
45043;SDS011;30784;48.490;9.688;2023-03-20T13:31:14;2.25;;;0.68;;
45043;SDS011;30784;48.490;9.688;2023-03-20T13:39:21;2.60;;;0.60;;
45043;SDS011;30784;48.490;9.688;2023-03-20T13:41:57;2.08;;;0.60;;
45043;SDS011;30784;48.490;9.688;2023-03-20T13:44:24;2.35;;;0.65;;
45043;SDS011;30784;48.490;9.688;2023-03-20T13:47:00;1.23;;;0.50;;
45043;SDS011;30784;48.490;9.688;2023-03-20T13:49:37;1.40;;;0.57;;
45043;SDS011;30784;48.490;9.688;2023-03-20T13:52:07;2.20;;;0.80;;
45043;SDS011;30784;48.490;9.688;2023-03-20T13:54:45;2.40;;;0.80;;
45043;SDS011;30784;48.490;9.688;2023-03-20T13:57:58;2.88;;;0.90;;
45043;SDS011;30784;48.490;9.688;2023-03-20T14:00:50;2.35;;;0.80;;
45043;SDS011;30784;48.490;9.688;2023-03-20T14:03:25;2.30;;;0.73;;
45043;SDS011;30784;48.490;9.688;2023-03-20T14:05:55;3.33;;;0.88;;
45043;SDS011;30784;48.490;9.688;2023-03-20T14:08:21;2.00;;;0.77;;
45043;SDS011;30784;48.490;9.688;2023-03-20T14:11:13;4.65;;;1.38;;
45043;SDS011;30784;48.490;9.688;2023-03-20T14:13:54;5.97;;;2.00;;
45043;SDS011;30784;48.490;9.688;2023-03-20T14:16:22;5.53;;;1.80;;
45043;SDS011;30784;48.490;9.688;2023-03-20T14:19:03;4.72;;;1.50;;
45043;SDS011;30784;48.490;9.688;2023-03-20T14:21:43;4.90;;;1.23;;
45043;SDS011;30784;48.490;9.688;2023-03-20T14:24:10;2.33;;;0.63;;
45043;SDS011;30784;48.490;9.688;2023-03-20T14:26:39;1.77;;;0.65;;
45043;SDS011;30784;48.490;9.688;2023-03-20T14:31:35;1.63;;;0.60;;
45043;SDS011;30784;48.490;9.688;2023-03-20T14:39:38;3.22;;;0.95;;
45043;SDS011;30784;48.490;9.688;2023-03-20T14:44:58;1.85;;;0.60;;
45043;SDS011;30784;48.490;9.688;2023-03-20T14:47:54;2.92;;;0.80;;
45043;SDS011;30784;48.490;9.688;2023-03-20T14:50:33;5.88;;;2.03;;
45043;SDS011;30784;48.490;9.688;2023-03-20T14:53:19;18.10;;;9.00;;
45043;SDS011;30784;48.490;9.688;2023-03-20T14:58:34;6.90;;;2.40;;
45043;SDS011;30784;48.490;9.688;2023-03-20T15:01:14;4.60;;;1.30;;
45043;SDS011;30784;48.490;9.688;2023-03-20T15:03:43;3.25;;;0.90;;
45043;SDS011;30784;48.490;9.688;2023-03-20T15:06:23;5.28;;;1.85;;
45043;SDS011;30784;48.490;9.688;2023-03-20T15:08:52;3.10;;;1.10;;
45043;SDS011;30784;48.490;9.688;2023-03-20T15:11:23;3.33;;;0.90;;
45043;SDS011;30784;48.490;9.688;2023-03-20T15:13:50;2.47;;;0.90;;
45043;SDS011;30784;48.490;9.688;2023-03-20T15:16:17;1.60;;;0.70;;
45043;SDS011;30784;48.490;9.688;2023-03-20T15:18:51;3.28;;;0.90;;
45043;SDS011;30784;48.490;9.688;2023-03-20T15:21:18;4.20;;;1.02;;
45043;SDS011;30784;48.490;9.688;2023-03-20T15:23:45;1.70;;;0.70;;
45043;SDS011;30784;48.490;9.688;2023-03-20T15:26:16;1.67;;;0.70;;
45043;SDS011;30784;48.490;9.688;2023-03-20T15:28:44;2.25;;;0.80;;
45043;SDS011;30784;48.490;9.688;2023-03-20T15:31:24;2.55;;;0.60;;
45043;SDS011;30784;48.490;9.688;2023-03-20T15:34:02;1.52;;;0.68;;
45043;SDS011;30784;48.490;9.688;2023-03-20T15:36:37;2.65;;;0.95;;
45043;SDS011;30784;48.490;9.688;2023-03-20T15:39:06;3.95;;;0.95;;
45043;SDS011;30784;48.490;9.688;2023-03-20T15:41:52;3.40;;;1.13;;
45043;SDS011;30784;48.490;9.688;2023-03-20T15:44:44;2.65;;;1.00;;
45043;SDS011;30784;48.490;9.688;2023-03-20T15:47:15;4.55;;;1.35;;
45043;SDS011;30784;48.490;9.688;2023-03-20T15:49:47;3.08;;;1.00;;
45043;SDS011;30784;48.490;9.688;2023-03-20T15:54:52;3.40;;;1.10;;
45043;SDS011;30784;48.490;9.688;2023-03-20T15:57:19;2.78;;;0.90;;
45043;SDS011;30784;48.490;9.688;2023-03-20T15:59:57;3.03;;;0.82;;
45043;SDS011;30784;48.490;9.688;2023-03-20T16:02:23;1.80;;;0.60;;
45043;SDS011;30784;48.490;9.688;2023-03-20T16:04:50;2.72;;;0.80;;
45043;SDS011;30784;48.490;9.688;2023-03-20T16:07:19;2.85;;;0.75;;
45043;SDS011;30784;48.490;9.688;2023-03-20T16:09:46;3.10;;;1.00;;
45043;SDS011;30784;48.490;9.688;2023-03-20T16:12:14;2.55;;;0.90;;
45043;SDS011;30784;48.490;9.688;2023-03-20T16:14:41;2.72;;;1.00;;
45043;SDS011;30784;48.490;9.688;2023-03-20T16:17:09;2.83;;;1.00;;
45043;SDS011;30784;48.490;9.688;2023-03-20T16:19:37;3.05;;;0.88;;
45043;SDS011;30784;48.490;9.688;2023-03-20T16:22:23;4.10;;;1.13;;
45043;SDS011;30784;48.490;9.688;2023-03-20T16:24:52;3.17;;;0.90;;
45043;SDS011;30784;48.490;9.688;2023-03-20T16:27:24;2.35;;;0.80;;
45043;SDS011;30784;48.490;9.688;2023-03-20T16:29:52;3.58;;;1.00;;
45043;SDS011;30784;48.490;9.688;2023-03-20T16:35:00;3.13;;;0.98;;
45043;SDS011;30784;48.490;9.688;2023-03-20T16:37:29;2.75;;;1.00;;
45043;SDS011;30784;48.490;9.688;2023-03-20T16:40:20;2.78;;;1.00;;
45043;SDS011;30784;48.490;9.688;2023-03-20T16:42:52;1.83;;;0.75;;
45043;SDS011;30784;48.490;9.688;2023-03-20T16:45:22;2.83;;;0.90;;
45043;SDS011;30784;48.490;9.688;2023-03-20T16:50:37;3.53;;;0.80;;
45043;SDS011;30784;48.490;9.688;2023-03-20T16:53:09;2.40;;;0.73;;
45043;SDS011;30784;48.490;9.688;2023-03-20T16:55:41;2.97;;;0.95;;
45043;SDS011;30784;48.490;9.688;2023-03-20T16:58:10;3.28;;;0.98;;
45043;SDS011;30784;48.490;9.688;2023-03-20T17:00:43;3.05;;;0.88;;
45043;SDS011;30784;48.490;9.688;2023-03-20T17:03:44;2.42;;;0.80;;
45043;SDS011;30784;48.490;9.688;2023-03-20T17:08:45;3.78;;;1.00;;
45043;SDS011;30784;48.490;9.688;2023-03-20T17:13:57;2.75;;;0.98;;
45043;SDS011;30784;48.490;9.688;2023-03-20T17:16:22;4.15;;;1.05;;
45043;SDS011;30784;48.490;9.688;2023-03-20T17:21:42;3.38;;;1.10;;